sensor_id;sensor_type;location;lat;lon;timestamp;pressure;altitude;pressure_sealevel;temperature;humidity
51829;BME280;37881;48.024;8.774;2023-03-14T00:00:51;92552.50;;;7.25;100.00
51829;BME280;37881;48.024;8.774;2023-03-14T00:03:17;92521.53;;;7.32;100.00
51829;BME280;37881;48.024;8.774;2023-03-14T00:05:44;92507.41;;;7.20;100.00
51829;BME280;37881;48.024;8.774;2023-03-14T00:08:11;92491.88;;;7.17;100.00
51829;BME280;37881;48.024;8.774;2023-03-14T00:10:38;92489.16;;;7.17;100.00
51829;BME280;37881;48.024;8.774;2023-03-14T00:13:05;92482.25;;;7.13;100.00
51829;BME280;37881;48.024;8.774;2023-03-14T00:15:33;92495.47;;;7.14;100.00
51829;BME280;37881;48.024;8.774;2023-03-14T00:18:00;92506.13;;;7.09;100.00
51829;BME280;37881;48.024;8.774;2023-03-14T00:20:27;92507.06;;;7.02;100.00
51829;BME280;37881;48.024;8.774;2023-03-14T00:22:54;92510.38;;;6.93;100.00
51829;BME280;37881;48.024;8.774;2023-03-14T00:25:20;92515.09;;;6.93;100.00
51829;BME280;37881;48.024;8.774;2023-03-14T00:27:50;92518.66;;;6.90;100.00
51829;BME280;37881;48.024;8.774;2023-03-14T00:30:17;92522.50;;;6.92;100.00
51829;BME280;37881;48.024;8.774;2023-03-14T00:32:44;92512.44;;;6.89;100.00
51829;BME280;37881;48.024;8.774;2023-03-14T00:35:11;92519.44;;;6.90;100.00
51829;BME280;37881;48.024;8.774;2023-03-14T00:37:37;92524.09;;;6.90;100.00
51829;BME280;37881;48.024;8.774;2023-03-14T00:40:05;92523.69;;;6.91;100.00
51829;BME280;37881;48.024;8.774;2023-03-14T00:42:34;92514.41;;;6.89;100.00
51829;BME280;37881;48.024;8.774;2023-03-14T00:45:01;92525.72;;;6.87;100.00
51829;BME280;37881;48.024;8.774;2023-03-14T00:47:27;92519.78;;;6.92;100.00
51829;BME280;37881;48.024;8.774;2023-03-14T00:49:54;92507.59;;;6.97;100.00
51829;BME280;37881;48.024;8.774;2023-03-14T00:52:21;92502.63;;;6.92;100.00
51829;BME280;37881;48.024;8.774;2023-03-14T00:54:47;92494.38;;;6.95;100.00
51829;BME280;37881;48.024;8.774;2023-03-14T00:57:14;92487.28;;;6.98;100.00
51829;BME280;37881;48.024;8.774;2023-03-14T00:59:41;92473.56;;;7.02;100.00
51829;BME280;37881;48.024;8.774;2023-03-14T01:02:07;92473.22;;;6.99;100.00
51829;BME280;37881;48.024;8.774;2023-03-14T01:04:34;92476.63;;;7.04;100.00
51829;BME280;37881;48.024;8.774;2023-03-14T01:07:01;92470.41;;;7.03;100.00
51829;BME280;37881;48.024;8.774;2023-03-14T01:09:27;92472.59;;;7.08;100.00
51829;BME280;37881;48.024;8.774;2023-03-14T01:11:54;92458.63;;;7.06;100.00
51829;BME280;37881;48.024;8.774;2023-03-14T01:14:21;92464.63;;;7.01;100.00
51829;BME280;37881;48.024;8.774;2023-03-14T01:16:48;92468.97;;;6.98;100.00
51829;BME280;37881;48.024;8.774;2023-03-14T01:19:14;92475.94;;;6.99;100.00
51829;BME280;37881;48.024;8.774;2023-03-14T01:21:41;92472.13;;;6.97;100.00
51829;BME280;37881;48.024;8.774;2023-03-14T01:24:10;92463.00;;;6.87;100.00
51829;BME280;37881;48.024;8.774;2023-03-14T01:26:37;92474.59;;;6.91;100.00
51829;BME280;37881;48.024;8.774;2023-03-14T01:29:04;92470.09;;;6.85;100.00
51829;BME280;37881;48.024;8.774;2023-03-14T01:31:30;92470.94;;;6.82;100.00
51829;BME280;37881;48.024;8.774;2023-03-14T01:33:58;92468.53;;;6.84;100.00
51829;BME280;37881;48.024;8.774;2023-03-14T01:36:24;92462.25;;;6.87;100.00
51829;BME280;37881;48.024;8.774;2023-03-14T01:38:51;92456.03;;;6.86;100.00
51829;BME280;37881;48.024;8.774;2023-03-14T01:41:21;92455.34;;;6.82;100.00
51829;BME280;37881;48.024;8.774;2023-03-14T01:43:48;92444.00;;;6.84;100.00
51829;BME280;37881;48.024;8.774;2023-03-14T01:46:26;92439.16;;;6.75;100.00
51829;BME280;37881;48.024;8.774;2023-03-14T01:49:04;92430.03;;;6.82;100.00
51829;BME280;37881;48.024;8.774;2023-03-14T01:51:38;92429.34;;;6.77;100.00
51829;BME280;37881;48.024;8.774;2023-03-14T01:54:15;92418.13;;;6.75;100.00
51829;BME280;37881;48.024;8.774;2023-03-14T01:56:46;92415.38;;;6.75;100.00
51829;BME280;37881;48.024;8.774;2023-03-14T01:59:14;92407.81;;;6.67;100.00
51829;BME280;37881;48.024;8.774;2023-03-14T02:01:43;92410.47;;;6.70;100.00
51829;BME280;37881;48.024;8.774;2023-03-14T02:04:11;92391.28;;;6.74;100.00
51829;BME280;37881;48.024;8.774;2023-03-14T02:06:48;92390.09;;;6.75;100.00
51829;BME280;37881;48.024;8.774;2023-03-14T02:09:16;92385.81;;;6.74;100.00
51829;BME280;37881;48.024;8.774;2023-03-14T02:11:43;92406.44;;;6.75;100.00
51829;BME280;37881;48.024;8.774;2023-03-14T02:14:18;92400.25;;;6.74;100.00
51829;BME280;37881;48.024;8.774;2023-03-14T02:16:48;92402.84;;;6.78;100.00
51829;BME280;37881;48.024;8.774;2023-03-14T02:19:18;92391.53;;;6.79;100.00
51829;BME280;37881;48.024;8.774;2023-03-14T02:24:39;92381.28;;;6.84;100.00
51829;BME280;37881;48.024;8.774;2023-03-14T02:27:15;92373.44;;;6.86;100.00
51829;BME280;37881;48.024;8.774;2023-03-14T02:29:49;92370.81;;;6.82;100.00
51829;BME280;37881;48.024;8.774;2023-03-14T02:32:19;92372.03;;;6.81;100.00
51829;BME280;37881;48.024;8.774;2023-03-14T02:34:48;92371.44;;;6.73;100.00
51829;BME280;37881;48.024;8.774;2023-03-14T02:37:17;92373.41;;;6.73;100.00
51829;BME280;37881;48.024;8.774;2023-03-14T02:39:46;92372.09;;;6.77;100.00
51829;BME280;37881;48.024;8.774;2023-03-14T02:42:15;92376.03;;;6.76;100.00
51829;BME280;37881;48.024;8.774;2023-03-14T02:47:37;92348.78;;;6.76;100.00
51829;BME280;37881;48.024;8.774;2023-03-14T02:50:13;92339.38;;;6.77;100.00
51829;BME280;37881;48.024;8.774;2023-03-14T02:52:42;92334.47;;;6.72;100.00
51829;BME280;37881;48.024;8.774;2023-03-14T02:55:09;92346.91;;;6.73;100.00
51829;BME280;37881;48.024;8.774;2023-03-14T02:57:36;92355.16;;;6.70;100.00
51829;BME280;37881;48.024;8.774;2023-03-14T03:00:03;92351.66;;;6.69;100.00
51829;BME280;37881;48.024;8.774;2023-03-14T03:02:33;92331.50;;;6.67;100.00
51829;BME280;37881;48.024;8.774;2023-03-14T03:05:00;92334.66;;;6.65;100.00
51829;BME280;37881;48.024;8.774;2023-03-14T03:07:27;92336.88;;;6.70;100.00
51829;BME280;37881;48.024;8.774;2023-03-14T03:09:53;92334.84;;;6.58;100.00
51829;BME280;37881;48.024;8.774;2023-03-14T03:12:20;92339.50;;;6.57;100.00
51829;BME280;37881;48.024;8.774;2023-03-14T03:14:47;92339.84;;;6.59;100.00
51829;BME280;37881;48.024;8.774;2023-03-14T03:17:13;92336.28;;;6.63;100.00
51829;BME280;37881;48.024;8.774;2023-03-14T03:19:40;92313.25;;;6.64;100.00
51829;BME280;37881;48.024;8.774;2023-03-14T03:22:07;92311.91;;;6.55;100.00
51829;BME280;37881;48.024;8.774;2023-03-14T03:24:34;92314.97;;;6.57;100.00
51829;BME280;37881;48.024;8.774;2023-03-14T03:27:00;92309.28;;;6.52;100.00
51829;BME280;37881;48.024;8.774;2023-03-14T03:29:27;92310.41;;;6.54;100.00
51829;BME280;37881;48.024;8.774;2023-03-14T03:31:54;92302.72;;;6.49;100.00
51829;BME280;37881;48.024;8.774;2023-03-14T03:34:20;92304.53;;;6.39;100.00
51829;BME280;37881;48.024;8.774;2023-03-14T03:36:47;92296.47;;;6.36;100.00
51829;BME280;37881;48.024;8.774;2023-03-14T03:39:14;92298.94;;;6.30;100.00
51829;BME280;37881;48.024;8.774;2023-03-14T03:41:40;92298.16;;;6.30;100.00
51829;BME280;37881;48.024;8.774;2023-03-14T03:44:07;92294.69;;;6.29;100.00
51829;BME280;37881;48.024;8.774;2023-03-14T03:46:34;92306.59;;;6.35;100.00
51829;BME280;37881;48.024;8.774;2023-03-14T03:49:01;92299.63;;;6.34;100.00
51829;BME280;37881;48.024;8.774;2023-03-14T03:51:28;92306.75;;;6.45;100.00
51829;BME280;37881;48.024;8.774;2023-03-14T03:53:56;92305.00;;;6.38;100.00
51829;BME280;37881;48.024;8.774;2023-03-14T03:56:22;92301.81;;;6.39;100.00
51829;BME280;37881;48.024;8.774;2023-03-14T03:58:49;92299.75;;;6.44;100.00
51829;BME280;37881;48.024;8.774;2023-03-14T04:01:16;92302.16;;;6.42;100.00
51829;BME280;37881;48.024;8.774;2023-03-14T04:03:43;92303.97;;;6.32;100.00
51829;BME280;37881;48.024;8.774;2023-03-14T04:06:11;92294.94;;;6.35;100.00
51829;BME280;37881;48.024;8.774;2023-03-14T04:08:39;92281.34;;;6.48;100.00
51829;BME280;37881;48.024;8.774;2023-03-14T04:11:07;92282.47;;;6.50;100.00
51829;BME280;37881;48.024;8.774;2023-03-14T04:13:34;92275.91;;;6.48;100.00
51829;BME280;37881;48.024;8.774;2023-03-14T04:16:00;92281.69;;;6.50;100.00
51829;BME280;37881;48.024;8.774;2023-03-14T04:18:27;92279.63;;;6.54;100.00
51829;BME280;37881;48.024;8.774;2023-03-14T04:20:57;92281.28;;;6.51;100.00
51829;BME280;37881;48.024;8.774;2023-03-14T04:23:25;92276.25;;;6.50;100.00
51829;BME280;37881;48.024;8.774;2023-03-14T04:25:53;92276.03;;;6.44;100.00
51829;BME280;37881;48.024;8.774;2023-03-14T04:28:20;92273.97;;;6.48;100.00
51829;BME280;37881;48.024;8.774;2023-03-14T04:30:47;92276.25;;;6.50;100.00
51829;BME280;37881;48.024;8.774;2023-03-14T04:33:13;92275.47;;;6.49;100.00
51829;BME280;37881;48.024;8.774;2023-03-14T04:35:44;92273.81;;;6.39;100.00
51829;BME280;37881;48.024;8.774;2023-03-14T04:38:12;92275.91;;;6.48;100.00
51829;BME280;37881;48.024;8.774;2023-03-14T04:40:40;92279.41;;;6.48;100.00
51829;BME280;37881;48.024;8.774;2023-03-14T04:43:08;92271.34;;;6.45;100.00
51829;BME280;37881;48.024;8.774;2023-03-14T04:45:36;92270.38;;;6.51;100.00
51829;BME280;37881;48.024;8.774;2023-03-14T04:48:03;92267.50;;;6.42;100.00
51829;BME280;37881;48.024;8.774;2023-03-14T04:50:30;92255.75;;;6.45;100.00
51829;BME280;37881;48.024;8.774;2023-03-14T04:52:56;92259.22;;;6.46;100.00
51829;BME280;37881;48.024;8.774;2023-03-14T04:55:23;92257.28;;;6.46;100.00
51829;BME280;37881;48.024;8.774;2023-03-14T04:57:50;92256.38;;;6.36;100.00
51829;BME280;37881;48.024;8.774;2023-03-14T05:00:17;92242.84;;;6.33;100.00
51829;BME280;37881;48.024;8.774;2023-03-14T05:02:44;92243.06;;;6.38;100.00
51829;BME280;37881;48.024;8.774;2023-03-14T05:05:11;92237.72;;;6.35;100.00
51829;BME280;37881;48.024;8.774;2023-03-14T05:07:38;92235.88;;;6.32;100.00
51829;BME280;37881;48.024;8.774;2023-03-14T05:10:05;92235.88;;;6.32;100.00
51829;BME280;37881;48.024;8.774;2023-03-14T05:12:31;92233.03;;;6.35;100.00
51829;BME280;37881;48.024;8.774;2023-03-14T05:14:58;92234.16;;;6.38;100.00
51829;BME280;37881;48.024;8.774;2023-03-14T05:17:25;92218.06;;;6.27;100.00
51829;BME280;37881;48.024;8.774;2023-03-14T05:19:51;92221.06;;;6.16;100.00
51829;BME280;37881;48.024;8.774;2023-03-14T05:22:18;92226.00;;;6.22;100.00
51829;BME280;37881;48.024;8.774;2023-03-14T05:24:45;92212.56;;;6.14;100.00
51829;BME280;37881;48.024;8.774;2023-03-14T05:27:11;92209.94;;;6.11;100.00
51829;BME280;37881;48.024;8.774;2023-03-14T05:29:38;92202.97;;;6.10;100.00
51829;BME280;37881;48.024;8.774;2023-03-14T05:32:05;92200.47;;;6.15;100.00
51829;BME280;37881;48.024;8.774;2023-03-14T05:34:31;92190.63;;;6.05;100.00
51829;BME280;37881;48.024;8.774;2023-03-14T05:36:58;92193.44;;;6.02;100.00
51829;BME280;37881;48.024;8.774;2023-03-14T05:39:25;92190.97;;;6.07;100.00
51829;BME280;37881;48.024;8.774;2023-03-14T05:41:51;92193.44;;;6.02;100.00
51829;BME280;37881;48.024;8.774;2023-03-14T05:44:20;92186.63;;;5.93;100.00
51829;BME280;37881;48.024;8.774;2023-03-14T05:46:47;92190.72;;;5.85;100.00
51829;BME280;37881;48.024;8.774;2023-03-14T05:49:13;92186.13;;;5.82;100.00
51829;BME280;37881;48.024;8.774;2023-03-14T05:51:40;92179.84;;;5.69;100.00
51829;BME280;37881;48.024;8.774;2023-03-14T05:54:07;92175.44;;;5.58;100.00
51829;BME280;37881;48.024;8.774;2023-03-14T05:56:33;92174.00;;;5.54;100.00
51829;BME280;37881;48.024;8.774;2023-03-14T05:59:00;92159.81;;;5.46;100.00
51829;BME280;37881;48.024;8.774;2023-03-14T06:01:30;92156.13;;;5.53;100.00
51829;BME280;37881;48.024;8.774;2023-03-14T06:03:56;92154.03;;;5.44;100.00
51829;BME280;37881;48.024;8.774;2023-03-14T06:06:23;92153.06;;;5.51;100.00
51829;BME280;37881;48.024;8.774;2023-03-14T06:08:50;92155.13;;;5.47;100.00
51829;BME280;37881;48.024;8.774;2023-03-14T06:11:17;92164.22;;;5.40;100.00
51829;BME280;37881;48.024;8.774;2023-03-14T06:13:43;92165.75;;;5.41;100.00
51829;BME280;37881;48.024;8.774;2023-03-14T06:16:10;92170.16;;;5.35;100.00
51829;BME280;37881;48.024;8.774;2023-03-14T06:18:37;92180.28;;;5.34;100.00
51829;BME280;37881;48.024;8.774;2023-03-14T06:21:03;92162.69;;;5.23;100.00
51829;BME280;37881;48.024;8.774;2023-03-14T06:23:30;92159.47;;;5.28;100.00
51829;BME280;37881;48.024;8.774;2023-03-14T06:25:58;92154.63;;;5.35;100.00
51829;BME280;37881;48.024;8.774;2023-03-14T06:28:25;92155.72;;;5.38;100.00
51829;BME280;37881;48.024;8.774;2023-03-14T06:30:52;92143.22;;;5.40;100.00
51829;BME280;37881;48.024;8.774;2023-03-14T06:33:19;92145.88;;;5.44;100.00
51829;BME280;37881;48.024;8.774;2023-03-14T06:35:45;92142.88;;;5.55;100.00
51829;BME280;37881;48.024;8.774;2023-03-14T06:38:12;92139.88;;;5.49;100.00
51829;BME280;37881;48.024;8.774;2023-03-14T06:40:39;92138.19;;;5.39;100.00
51829;BME280;37881;48.024;8.774;2023-03-14T06:43:05;92139.66;;;5.44;100.00
51829;BME280;37881;48.024;8.774;2023-03-14T06:45:32;92132.06;;;5.51;100.00
51829;BME280;37881;48.024;8.774;2023-03-14T06:47:59;92133.53;;;5.56;100.00
51829;BME280;37881;48.024;8.774;2023-03-14T06:50:25;92118.72;;;5.57;100.00
51829;BME280;37881;48.024;8.774;2023-03-14T06:52:52;92116.44;;;5.55;100.00
51829;BME280;37881;48.024;8.774;2023-03-14T06:55:19;92121.78;;;5.59;100.00
51829;BME280;37881;48.024;8.774;2023-03-14T06:57:48;92114.28;;;5.63;100.00
51829;BME280;37881;48.024;8.774;2023-03-14T07:00:15;92123.94;;;5.80;100.00
51829;BME280;37881;48.024;8.774;2023-03-14T07:02:42;92132.28;;;5.90;100.00
51829;BME280;37881;48.024;8.774;2023-03-14T07:05:09;92139.47;;;6.13;100.00
51829;BME280;37881;48.024;8.774;2023-03-14T07:07:36;92138.03;;;6.50;100.00
51829;BME280;37881;48.024;8.774;2023-03-14T07:10:03;92149.81;;;6.47;100.00
51829;BME280;37881;48.024;8.774;2023-03-14T07:12:30;92147.00;;;6.64;100.00
51829;BME280;37881;48.024;8.774;2023-03-14T07:14:57;92139.47;;;6.68;100.00
51829;BME280;37881;48.024;8.774;2023-03-14T07:17:37;92136.13;;;7.02;100.00
51829;BME280;37881;48.024;8.774;2023-03-14T07:20:04;92143.31;;;7.34;100.00
51829;BME280;37881;48.024;8.774;2023-03-14T07:22:34;92143.00;;;7.19;100.00
51829;BME280;37881;48.024;8.774;2023-03-14T07:25:00;92135.91;;;7.22;100.00
51829;BME280;37881;48.024;8.774;2023-03-14T07:27:27;92127.72;;;7.35;100.00
51829;BME280;37881;48.024;8.774;2023-03-14T07:29:54;92128.78;;;7.37;100.00
51829;BME280;37881;48.024;8.774;2023-03-14T07:32:20;92129.72;;;7.56;100.00
51829;BME280;37881;48.024;8.774;2023-03-14T07:34:47;92129.09;;;7.65;100.00
51829;BME280;37881;48.024;8.774;2023-03-14T07:37:14;92122.56;;;9.35;100.00
51829;BME280;37881;48.024;8.774;2023-03-14T07:39:40;92121.03;;;12.49;90.70
51829;BME280;37881;48.024;8.774;2023-03-14T07:42:07;92121.16;;;14.55;76.38
51829;BME280;37881;48.024;8.774;2023-03-14T07:44:34;92119.91;;;14.56;69.33
51829;BME280;37881;48.024;8.774;2023-03-14T07:47:01;92127.19;;;15.06;65.11
51829;BME280;37881;48.024;8.774;2023-03-14T07:49:28;92114.84;;;15.65;57.24
51829;BME280;37881;48.024;8.774;2023-03-14T07:51:54;92127.41;;;15.92;58.15
51829;BME280;37881;48.024;8.774;2023-03-14T07:54:21;92125.06;;;13.07;66.27
51829;BME280;37881;48.024;8.774;2023-03-14T07:56:49;92120.88;;;14.53;63.10
51829;BME280;37881;48.024;8.774;2023-03-14T07:59:15;92134.66;;;13.42;65.88
51829;BME280;37881;48.024;8.774;2023-03-14T08:01:42;92114.31;;;14.51;61.79
51829;BME280;37881;48.024;8.774;2023-03-14T08:04:09;92140.91;;;11.80;70.11
51829;BME280;37881;48.024;8.774;2023-03-14T08:06:36;92134.06;;;12.48;71.08
51829;BME280;37881;48.024;8.774;2023-03-14T08:09:04;92138.75;;;13.02;69.55
51829;BME280;37881;48.024;8.774;2023-03-14T08:11:30;92134.03;;;11.52;78.09
51829;BME280;37881;48.024;8.774;2023-03-14T08:13:57;92153.56;;;11.02;82.32
51829;BME280;37881;48.024;8.774;2023-03-14T08:16:24;92147.94;;;11.48;82.57
51829;BME280;37881;48.024;8.774;2023-03-14T08:18:51;92151.72;;;14.52;63.90
51829;BME280;37881;48.024;8.774;2023-03-14T08:21:17;92160.69;;;14.47;62.96
51829;BME280;37881;48.024;8.774;2023-03-14T08:23:44;92148.13;;;12.26;70.99
51829;BME280;37881;48.024;8.774;2023-03-14T08:26:11;92169.34;;;11.35;78.56
51829;BME280;37881;48.024;8.774;2023-03-14T08:28:37;92174.94;;;10.98;81.27
51829;BME280;37881;48.024;8.774;2023-03-14T08:31:04;92179.56;;;10.83;85.43
51829;BME280;37881;48.024;8.774;2023-03-14T08:33:31;92175.44;;;10.41;87.53
51829;BME280;37881;48.024;8.774;2023-03-14T08:36:01;92173.28;;;10.08;90.10
51829;BME280;37881;48.024;8.774;2023-03-14T08:38:28;92173.50;;;9.64;96.08
51829;BME280;37881;48.024;8.774;2023-03-14T08:40:56;92182.03;;;9.75;97.18
51829;BME280;37881;48.024;8.774;2023-03-14T08:43:24;92198.06;;;9.46;99.04
51829;BME280;37881;48.024;8.774;2023-03-14T08:45:51;92185.38;;;9.30;100.00
51829;BME280;37881;48.024;8.774;2023-03-14T08:48:18;92188.75;;;9.34;100.00
51829;BME280;37881;48.024;8.774;2023-03-14T08:50:47;92194.91;;;9.25;100.00
51829;BME280;37881;48.024;8.774;2023-03-14T08:53:13;92194.53;;;8.83;100.00
51829;BME280;37881;48.024;8.774;2023-03-14T08:55:40;92189.91;;;8.92;100.00
51829;BME280;37881;48.024;8.774;2023-03-14T08:58:07;92199.13;;;8.86;100.00
51829;BME280;37881;48.024;8.774;2023-03-14T09:00:33;92197.97;;;8.96;100.00
51829;BME280;37881;48.024;8.774;2023-03-14T09:03:00;92191.50;;;8.80;100.00
51829;BME280;37881;48.024;8.774;2023-03-14T09:05:27;92190.66;;;8.71;100.00
51829;BME280;37881;48.024;8.774;2023-03-14T09:07:53;92192.19;;;8.72;100.00
51829;BME280;37881;48.024;8.774;2023-03-14T09:10:20;92203.69;;;8.45;100.00
51829;BME280;37881;48.024;8.774;2023-03-14T09:12:47;92205.25;;;8.68;100.00
51829;BME280;37881;48.024;8.774;2023-03-14T09:15:13;92190.03;;;8.67;100.00
51829;BME280;37881;48.024;8.774;2023-03-14T09:17:42;92208.41;;;8.66;100.00
51829;BME280;37881;48.024;8.774;2023-03-14T09:20:10;92203.16;;;8.72;100.00
51829;BME280;37881;48.024;8.774;2023-03-14T09:22:37;92202.38;;;8.71;100.00
51829;BME280;37881;48.024;8.774;2023-03-14T09:25:04;92208.28;;;8.70;100.00
51829;BME280;37881;48.024;8.774;2023-03-14T09:27:31;92210.19;;;8.60;100.00
51829;BME280;37881;48.024;8.774;2023-03-14T09:29:58;92208.59;;;8.94;100.00
51829;BME280;37881;48.024;8.774;2023-03-14T09:32:25;92215.38;;;9.11;100.00
51829;BME280;37881;48.024;8.774;2023-03-14T09:34:51;92210.31;;;9.00;100.00
51829;BME280;37881;48.024;8.774;2023-03-14T09:37:18;92216.88;;;8.81;100.00
51829;BME280;37881;48.024;8.774;2023-03-14T09:39:46;92221.53;;;8.71;100.00
51829;BME280;37881;48.024;8.774;2023-03-14T09:42:16;92216.53;;;8.79;100.00
51829;BME280;37881;48.024;8.774;2023-03-14T09:44:59;92221.84;;;8.73;100.00
51829;BME280;37881;48.024;8.774;2023-03-14T09:47:27;92221.47;;;8.84;100.00
51829;BME280;37881;48.024;8.774;2023-03-14T09:49:54;92223.81;;;8.73;100.00
51829;BME280;37881;48.024;8.774;2023-03-14T09:52:25;92228.59;;;8.82;100.00
51829;BME280;37881;48.024;8.774;2023-03-14T09:55:05;92228.94;;;8.71;100.00
51829;BME280;37881;48.024;8.774;2023-03-14T09:57:34;92231.31;;;8.59;100.00
51829;BME280;37881;48.024;8.774;2023-03-14T10:00:18;92233.03;;;8.66;100.00
51829;BME280;37881;48.024;8.774;2023-03-14T10:05:41;92242.28;;;8.47;100.00
51829;BME280;37881;48.024;8.774;2023-03-14T10:08:12;92233.84;;;8.54;100.00
51829;BME280;37881;48.024;8.774;2023-03-14T10:10:40;92237.22;;;8.80;100.00
51829;BME280;37881;48.024;8.774;2023-03-14T10:13:24;92240.00;;;8.89;100.00
51829;BME280;37881;48.024;8.774;2023-03-14T10:15:55;92228.44;;;8.85;100.00
51829;BME280;37881;48.024;8.774;2023-03-14T10:18:25;92239.22;;;8.79;100.00
51829;BME280;37881;48.024;8.774;2023-03-14T10:21:15;92244.91;;;8.72;100.00
51829;BME280;37881;48.024;8.774;2023-03-14T10:23:44;92243.53;;;8.90;100.00
51829;BME280;37881;48.024;8.774;2023-03-14T10:26:37;92240.09;;;8.98;100.00
51829;BME280;37881;48.024;8.774;2023-03-14T10:29:08;92238.25;;;8.95;100.00
51829;BME280;37881;48.024;8.774;2023-03-14T10:31:59;92239.22;;;8.79;100.00
51829;BME280;37881;48.024;8.774;2023-03-14T10:34:35;92257.09;;;8.71;100.00
51829;BME280;37881;48.024;8.774;2023-03-14T10:37:18;92253.31;;;8.56;100.00
51829;BME280;37881;48.024;8.774;2023-03-14T10:39:50;92261.19;;;8.54;100.00
51829;BME280;37881;48.024;8.774;2023-03-14T10:42:27;92268.16;;;8.90;100.00
51829;BME280;37881;48.024;8.774;2023-03-14T10:45:00;92258.41;;;8.89;100.00
51829;BME280;37881;48.024;8.774;2023-03-14T10:47:29;92262.50;;;8.84;100.00
51829;BME280;37881;48.024;8.774;2023-03-14T10:49:56;92266.53;;;8.57;100.00
51829;BME280;37881;48.024;8.774;2023-03-14T10:52:26;92268.47;;;8.22;100.00
51829;BME280;37881;48.024;8.774;2023-03-14T10:55:11;92274.81;;;8.19;100.00
51829;BME280;37881;48.024;8.774;2023-03-14T10:57:40;92265.22;;;8.02;100.00
51829;BME280;37881;48.024;8.774;2023-03-14T11:00:18;92290.91;;;7.78;100.00
51829;BME280;37881;48.024;8.774;2023-03-14T11:03:12;92287.19;;;7.72;100.00
51829;BME280;37881;48.024;8.774;2023-03-14T11:05:52;92296.38;;;7.66;100.00
51829;BME280;37881;48.024;8.774;2023-03-14T11:13:47;92311.41;;;7.32;100.00
51829;BME280;37881;48.024;8.774;2023-03-14T11:19:36;92311.09;;;7.43;100.00
51829;BME280;37881;48.024;8.774;2023-03-14T11:29:51;92329.56;;;7.51;100.00
51829;BME280;37881;48.024;8.774;2023-03-14T11:35:34;92336.84;;;7.42;100.00
51829;BME280;37881;48.024;8.774;2023-03-14T11:40:48;92345.81;;;7.42;100.00
51829;BME280;37881;48.024;8.774;2023-03-14T11:43:52;92354.41;;;7.28;100.00
51829;BME280;37881;48.024;8.774;2023-03-14T11:46:23;92353.31;;;7.25;100.00
51829;BME280;37881;48.024;8.774;2023-03-14T11:51:32;92365.16;;;7.48;100.00
51829;BME280;37881;48.024;8.774;2023-03-14T11:54:18;92354.38;;;7.15;100.00
51829;BME280;37881;48.024;8.774;2023-03-14T11:56:54;92355.63;;;7.27;100.00
51829;BME280;37881;48.024;8.774;2023-03-14T11:59:27;92350.59;;;7.25;100.00
51829;BME280;37881;48.024;8.774;2023-03-14T12:02:00;92365.28;;;7.83;100.00
51829;BME280;37881;48.024;8.774;2023-03-14T12:07:20;92359.34;;;7.33;100.00
51829;BME280;37881;48.024;8.774;2023-03-14T12:09:49;92367.34;;;7.11;100.00
51829;BME280;37881;48.024;8.774;2023-03-14T12:12:20;92371.25;;;7.10;100.00
51829;BME280;37881;48.024;8.774;2023-03-14T12:14:58;92369.16;;;7.01;100.00
51829;BME280;37881;48.024;8.774;2023-03-14T12:17:33;92368.88;;;6.83;100.00
51829;BME280;37881;48.024;8.774;2023-03-14T12:22:35;92380.38;;;7.32;100.00
51829;BME280;37881;48.024;8.774;2023-03-14T12:25:06;92368.56;;;6.93;100.00
51829;BME280;37881;48.024;8.774;2023-03-14T12:35:51;92434.81;;;6.77;100.00
51829;BME280;37881;48.024;8.774;2023-03-14T12:38:48;92471.28;;;6.67;100.00
51829;BME280;37881;48.024;8.774;2023-03-14T12:41:29;92471.41;;;6.27;100.00
51829;BME280;37881;48.024;8.774;2023-03-14T12:47:00;92490.50;;;6.44;100.00
51829;BME280;37881;48.024;8.774;2023-03-14T12:49:31;92511.66;;;6.19;100.00
51829;BME280;37881;48.024;8.774;2023-03-14T12:51:59;92502.75;;;6.35;100.00
51829;BME280;37881;48.024;8.774;2023-03-14T12:57:33;92535.03;;;6.37;100.00
51829;BME280;37881;48.024;8.774;2023-03-14T13:00:24;92552.69;;;6.12;100.00
51829;BME280;37881;48.024;8.774;2023-03-14T13:03:02;92562.34;;;6.70;100.00
51829;BME280;37881;48.024;8.774;2023-03-14T13:05:55;92574.94;;;6.64;100.00
51829;BME280;37881;48.024;8.774;2023-03-14T13:08:41;92605.94;;;6.53;100.00
51829;BME280;37881;48.024;8.774;2023-03-14T13:11:12;92599.63;;;6.20;100.00
51829;BME280;37881;48.024;8.774;2023-03-14T13:13:48;92616.56;;;6.48;100.00
51829;BME280;37881;48.024;8.774;2023-03-14T13:16:18;92628.09;;;6.55;100.00
51829;BME280;37881;48.024;8.774;2023-03-14T13:18:48;92616.78;;;6.37;100.00
51829;BME280;37881;48.024;8.774;2023-03-14T13:21:20;92631.97;;;6.74;100.00
51829;BME280;37881;48.024;8.774;2023-03-14T13:26:22;92625.47;;;6.32;100.00
51829;BME280;37881;48.024;8.774;2023-03-14T13:28:49;92645.66;;;6.91;100.00
51829;BME280;37881;48.024;8.774;2023-03-14T13:31:24;92650.13;;;7.17;100.00
51829;BME280;37881;48.024;8.774;2023-03-14T13:33:59;92645.84;;;6.44;100.00
51829;BME280;37881;48.024;8.774;2023-03-14T13:36:27;92660.59;;;6.66;100.00
51829;BME280;37881;48.024;8.774;2023-03-14T13:39:00;92670.00;;;6.82;100.00
51829;BME280;37881;48.024;8.774;2023-03-14T13:41:31;92665.81;;;6.77;100.00
51829;BME280;37881;48.024;8.774;2023-03-14T13:44:02;92665.81;;;6.77;100.00
51829;BME280;37881;48.024;8.774;2023-03-14T13:46:30;92692.00;;;7.76;100.00
51829;BME280;37881;48.024;8.774;2023-03-14T13:49:10;92682.41;;;7.03;100.00
51829;BME280;37881;48.024;8.774;2023-03-14T13:51:41;92690.91;;;7.25;100.00
51829;BME280;37881;48.024;8.774;2023-03-14T13:54:16;92693.81;;;7.50;100.00
51829;BME280;37881;48.024;8.774;2023-03-14T13:56:44;92708.78;;;7.26;100.00
51829;BME280;37881;48.024;8.774;2023-03-14T13:59:31;92701.59;;;6.79;100.00
51829;BME280;37881;48.024;8.774;2023-03-14T14:02:00;92717.66;;;5.90;100.00
51829;BME280;37881;48.024;8.774;2023-03-14T14:04:32;92733.50;;;6.18;100.00
51829;BME280;37881;48.024;8.774;2023-03-14T14:07:07;92738.19;;;6.18;100.00